sensor_id;sensor_type;location;lat;lon;timestamp;temperature;humidity
24632;DHT22;59977;48.782;9.190;2022-12-15T20:33:02;1.70;99.90
24632;DHT22;59977;48.782;9.190;2022-12-15T20:35:30;1.80;99.90
24632;DHT22;59977;48.782;9.190;2022-12-15T20:37:57;1.80;99.90
24632;DHT22;59977;48.782;9.190;2022-12-15T20:40:26;1.80;99.90
24632;DHT22;59977;48.782;9.190;2022-12-15T20:42:52;1.90;99.90
24632;DHT22;59977;48.782;9.190;2022-12-15T20:45:21;2.00;99.90
24632;DHT22;59977;48.782;9.190;2022-12-15T20:47:49;1.90;99.90
24632;DHT22;59977;48.782;9.190;2022-12-15T20:50:36;2.00;99.90
24632;DHT22;59977;48.782;9.190;2022-12-15T20:53:15;1.90;99.90
24632;DHT22;59977;48.782;9.190;2022-12-15T20:55:41;1.80;99.90
24632;DHT22;59977;48.782;9.190;2022-12-15T20:58:07;1.80;99.90
24632;DHT22;59977;48.782;9.190;2022-12-15T21:00:32;1.70;99.90
24632;DHT22;59977;48.782;9.190;2022-12-15T21:02:58;1.60;99.90
24632;DHT22;59977;48.782;9.190;2022-12-15T21:05:24;1.60;99.90
24632;DHT22;59977;48.782;9.190;2022-12-15T21:07:50;1.60;99.90
24632;DHT22;59977;48.782;9.190;2022-12-15T21:10:18;1.60;99.90
24632;DHT22;59977;48.782;9.190;2022-12-15T21:12:46;1.60;99.90
24632;DHT22;59977;48.782;9.190;2022-12-15T21:15:18;1.60;99.90
24632;DHT22;59977;48.782;9.190;2022-12-15T21:17:44;1.50;99.90
24632;DHT22;59977;48.782;9.190;2022-12-15T21:20:11;1.50;99.90
24632;DHT22;59977;48.782;9.190;2022-12-15T21:22:37;1.60;99.90
24632;DHT22;59977;48.782;9.190;2022-12-15T21:25:05;1.60;99.90
24632;DHT22;59977;48.782;9.190;2022-12-15T21:27:38;1.70;99.90
24632;DHT22;59977;48.782;9.190;2022-12-15T21:30:16;1.70;99.90
24632;DHT22;59977;48.782;9.190;2022-12-15T21:32:45;1.70;99.90
24632;DHT22;59977;48.782;9.190;2022-12-15T21:35:16;1.50;99.90
24632;DHT22;59977;48.782;9.190;2022-12-15T21:37:44;1.40;99.90
24632;DHT22;59977;48.782;9.190;2022-12-15T21:40:16;1.60;99.90
24632;DHT22;59977;48.782;9.190;2022-12-15T21:42:42;1.50;99.90
24632;DHT22;59977;48.782;9.190;2022-12-15T21:45:28;1.50;99.90
24632;DHT22;59977;48.782;9.190;2022-12-15T21:47:54;1.60;99.90
24632;DHT22;59977;48.782;9.190;2022-12-15T21:50:39;1.60;99.90
24632;DHT22;59977;48.782;9.190;2022-12-15T21:53:10;1.70;99.90
24632;DHT22;59977;48.782;9.190;2022-12-15T21:55:40;1.70;99.90
24632;DHT22;59977;48.782;9.190;2022-12-15T21:58:26;1.60;99.90
24632;DHT22;59977;48.782;9.190;2022-12-15T22:00:52;1.70;99.90
24632;DHT22;59977;48.782;9.190;2022-12-15T22:03:18;1.60;99.90
24632;DHT22;59977;48.782;9.190;2022-12-15T22:05:43;1.60;99.90
24632;DHT22;59977;48.782;9.190;2022-12-15T22:08:20;1.60;99.90
24632;DHT22;59977;48.782;9.190;2022-12-15T22:10:48;3.10;99.90
24632;DHT22;59977;48.782;9.190;2022-12-15T22:13:19;1.60;99.90
24632;DHT22;59977;48.782;9.190;2022-12-15T22:15:46;1.50;99.90
24632;DHT22;59977;48.782;9.190;2022-12-15T22:18:14;1.40;99.90
24632;DHT22;59977;48.782;9.190;2022-12-15T22:20:45;1.30;99.90
24632;DHT22;59977;48.782;9.190;2022-12-15T22:23:13;1.30;99.90
24632;DHT22;59977;48.782;9.190;2022-12-15T22:25:40;1.30;99.90
24632;DHT22;59977;48.782;9.190;2022-12-15T22:28:19;1.40;99.90
24632;DHT22;59977;48.782;9.190;2022-12-15T22:30:47;1.40;99.90
24632;DHT22;59977;48.782;9.190;2022-12-15T22:33:16;1.40;99.90
24632;DHT22;59977;48.782;9.190;2022-12-15T22:35:53;1.40;99.90
24632;DHT22;59977;48.782;9.190;2022-12-15T22:38:20;1.30;99.90
24632;DHT22;59977;48.782;9.190;2022-12-15T22:40:48;1.40;99.90
24632;DHT22;59977;48.782;9.190;2022-12-15T22:43:41;1.30;99.90
24632;DHT22;59977;48.782;9.190;2022-12-15T22:46:09;1.20;99.90
24632;DHT22;59977;48.782;9.190;2022-12-15T22:48:39;1.20;99.90
24632;DHT22;59977;48.782;9.190;2022-12-15T22:51:06;1.10;99.90
24632;DHT22;59977;48.782;9.190;2022-12-15T22:53:33;1.20;99.90
24632;DHT22;59977;48.782;9.190;2022-12-15T22:56:03;1.10;99.90
24632;DHT22;59977;48.782;9.190;2022-12-15T22:58:41;0.80;99.90
24632;DHT22;59977;48.782;9.190;2022-12-15T23:01:08;1.30;99.90
24632;DHT22;59977;48.782;9.190;2022-12-15T23:03:34;1.30;99.90
24632;DHT22;59977;48.782;9.190;2022-12-15T23:06:01;1.30;99.90
24632;DHT22;59977;48.782;9.190;2022-12-15T23:08:28;1.20;99.90
24632;DHT22;59977;48.782;9.190;2022-12-15T23:10:54;1.30;99.90
24632;DHT22;59977;48.782;9.190;2022-12-15T23:13:38;1.20;99.90
24632;DHT22;59977;48.782;9.190;2022-12-15T23:16:05;1.10;99.90
24632;DHT22;59977;48.782;9.190;2022-12-15T23:18:55;1.10;99.90
24632;DHT22;59977;48.782;9.190;2022-12-15T23:21:22;0.90;99.90
24632;DHT22;59977;48.782;9.190;2022-12-15T23:23:49;0.90;99.90
24632;DHT22;59977;48.782;9.190;2022-12-15T23:26:17;1.00;99.90
24632;DHT22;59977;48.782;9.190;2022-12-15T23:28:42;1.00;99.90
24632;DHT22;59977;48.782;9.190;2022-12-15T23:31:09;1.00;99.90
24632;DHT22;59977;48.782;9.190;2022-12-15T23:33:35;1.10;99.90
24632;DHT22;59977;48.782;9.190;2022-12-15T23:36:01;1.10;99.90
24632;DHT22;59977;48.782;9.190;2022-12-15T23:38:27;1.10;99.90
24632;DHT22;59977;48.782;9.190;2022-12-15T23:40:54;0.90;99.90
24632;DHT22;59977;48.782;9.190;2022-12-15T23:43:20;0.80;99.90
24632;DHT22;59977;48.782;9.190;2022-12-15T23:45:55;0.90;99.90
24632;DHT22;59977;48.782;9.190;2022-12-15T23:48:21;0.90;99.90
24632;DHT22;59977;48.782;9.190;2022-12-15T23:50:47;0.90;99.90
24632;DHT22;59977;48.782;9.190;2022-12-15T23:53:12;1.00;99.90
24632;DHT22;59977;48.782;9.190;2022-12-15T23:55:38;1.00;99.90
24632;DHT22;59977;48.782;9.190;2022-12-15T23:58:03;1.00;99.90
